createdAt,value
2022-12-03T00:01:24.472Z,81.28
2022-12-03T00:03:51.492Z,80.20
2022-12-03T00:06:18.891Z,80.95
2022-12-03T00:08:45.708Z,80.30
2022-12-03T00:11:13.911Z,80.63
2022-12-03T00:13:40.741Z,80.40
2022-12-03T00:16:07.941Z,80.57
2022-12-03T00:18:35.336Z,81.50
2022-12-03T00:21:02.276Z,80.63
2022-12-03T00:23:29.123Z,80.50
2022-12-03T00:25:55.971Z,80.60
2022-12-03T00:28:24.255Z,80.63
2022-12-03T00:30:54.053Z,80.22
2022-12-03T00:33:21.203Z,80.53
2022-12-03T00:35:48.297Z,80.00
2022-12-03T00:38:15.357Z,80.10
2022-12-03T00:40:42.273Z,80.25
2022-12-03T00:43:09.101Z,79.88
2022-12-03T00:45:37.376Z,80.07
2022-12-03T00:48:04.640Z,81.57
2022-12-03T00:50:31.571Z,80.63
2022-12-03T00:52:58.412Z,80.32
2022-12-03T00:55:25.305Z,80.20
2022-12-03T00:57:52.163Z,79.97
2022-12-03T01:00:24.493Z,80.88
2022-12-03T01:02:53.195Z,80.22
2022-12-03T01:05:20.741Z,79.82
2022-12-03T01:07:47.654Z,80.95
2022-12-03T01:10:14.819Z,80.70
2022-12-03T01:12:41.755Z,80.72
2022-12-03T01:15:09.714Z,79.40
2022-12-03T01:17:37.119Z,80.45
2022-12-03T01:20:08.007Z,79.63
2022-12-03T01:22:34.926Z,80.15
2022-12-03T01:25:01.783Z,80.28
2022-12-03T01:27:28.632Z,80.25
2022-12-03T01:29:55.469Z,80.28
2022-12-03T01:32:22.375Z,80.43
2022-12-03T01:34:51.220Z,80.07
2022-12-03T01:37:22.107Z,79.97
2022-12-03T01:39:49.253Z,80.80
2022-12-03T01:42:18.549Z,80.03
2022-12-03T01:44:46.173Z,80.32
2022-12-03T01:47:16.201Z,80.35
2022-12-03T01:49:46.915Z,79.63
2022-12-03T01:52:16.386Z,79.85
2022-12-03T01:54:47.476Z,79.97
2022-12-03T01:57:21.172Z,79.72
2022-12-03T01:59:48.788Z,79.97
2022-12-03T02:02:21.078Z,79.72
2022-12-03T02:04:48.134Z,79.60
2022-12-03T02:07:24.385Z,79.88
2022-12-03T02:09:53.801Z,80.05
2022-12-03T02:12:25.821Z,80.38
2022-12-03T02:14:53.747Z,80.15
2022-12-03T02:17:21.212Z,81.45
2022-12-03T02:19:48.944Z,80.75
2022-12-03T02:22:27.080Z,79.78
2022-12-03T02:25:04.774Z,79.93
2022-12-03T02:27:31.740Z,80.22
2022-12-03T02:29:58.633Z,80.38
2022-12-03T02:32:25.592Z,80.03
2022-12-03T02:34:52.735Z,79.85
2022-12-03T02:37:24.391Z,80.03
2022-12-03T02:42:36.638Z,80.32
2022-12-03T02:45:09.099Z,79.93
2022-12-03T02:47:41.006Z,79.53
2022-12-03T02:50:09.892Z,79.82
2022-12-03T02:52:37.366Z,80.03
2022-12-03T02:55:06.767Z,79.93
2022-12-03T02:57:37.699Z,79.90
2022-12-03T03:00:06.653Z,80.23
2022-12-03T03:02:35.031Z,80.40
2022-12-03T03:05:02.497Z,79.40
2022-12-03T03:07:29.568Z,79.60
2022-12-03T03:09:56.559Z,80.63
2022-12-03T03:12:23.616Z,79.90
2022-12-03T03:14:52.610Z,79.32
2022-12-03T03:17:19.764Z,80.10
2022-12-03T03:19:46.862Z,79.55
2022-12-03T03:22:13.710Z,79.43
2022-12-03T03:24:40.559Z,80.07
2022-12-03T03:27:07.663Z,80.70
2022-12-03T03:29:35.033Z,79.63
2022-12-03T03:32:04.442Z,79.97
2022-12-03T03:34:32.984Z,79.40
2022-12-03T03:36:59.895Z,81.18
2022-12-03T03:39:26.751Z,80.22
2022-12-03T03:41:53.619Z,79.43
2022-12-03T03:44:20.585Z,79.90
2022-12-03T03:46:48.840Z,82.60
2022-12-03T03:49:17.350Z,79.70
2022-12-03T03:51:44.715Z,79.90
2022-12-03T03:54:12.229Z,79.93
2022-12-03T03:56:39.214Z,79.78
2022-12-03T03:59:06.125Z,80.43
2022-12-03T04:01:33.551Z,79.65
2022-12-03T04:04:00.876Z,79.43
2022-12-03T04:06:29.227Z,79.70
2022-12-03T04:08:56.084Z,80.28
2022-12-03T04:11:41.345Z,79.75
2022-12-03T04:14:08.247Z,81.32
2022-12-03T04:16:35.106Z,79.97
2022-12-03T04:19:01.953Z,79.68
2022-12-03T04:21:48.420Z,79.93
2022-12-03T04:24:15.290Z,79.63
2022-12-03T04:27:00.771Z,80.03
2022-12-03T04:29:27.661Z,80.30
2022-12-03T04:32:13.132Z,79.82
2022-12-03T04:34:58.422Z,79.85
2022-12-03T04:37:26.640Z,80.22
2022-12-03T04:39:53.490Z,79.38
2022-12-03T04:42:20.327Z,79.75
2022-12-03T04:44:47.470Z,80.95
2022-12-03T04:47:16.173Z,80.22
2022-12-03T04:49:45.218Z,79.30
2022-12-03T04:52:13.462Z,80.93
2022-12-03T04:54:42.202Z,79.43
2022-12-03T04:57:09.967Z,79.78
2022-12-03T04:59:37.380Z,80.35
2022-12-03T05:02:05.548Z,80.05
2022-12-03T05:04:33.046Z,79.43
2022-12-03T05:06:59.916Z,81.15
2022-12-03T05:09:26.814Z,79.72
2022-12-03T05:11:55.023Z,79.72
2022-12-03T05:14:22.335Z,79.85
2022-12-03T05:16:49.243Z,80.05
2022-12-03T05:19:16.264Z,79.82
2022-12-03T05:21:43.106Z,80.93
2022-12-03T05:24:10.008Z,79.85
2022-12-03T05:26:36.834Z,79.47
2022-12-03T05:29:05.364Z,79.50
2022-12-03T05:31:32.190Z,79.88
2022-12-03T05:33:59.095Z,79.43
2022-12-03T05:36:26.120Z,79.57
2022-12-03T05:38:52.941Z,80.10
2022-12-03T05:41:38.540Z,79.63
2022-12-03T05:44:06.769Z,79.55
2022-12-03T05:46:33.825Z,80.25
2022-12-03T05:49:00.947Z,79.47
2022-12-03T05:51:28.054Z,80.00
2022-12-03T05:53:57.197Z,79.57
2022-12-03T05:56:24.170Z,79.85
2022-12-03T05:58:51.083Z,80.32
2022-12-03T06:01:19.343Z,80.53
2022-12-03T06:03:46.304Z,80.70
2022-12-03T06:06:13.203Z,79.32
2022-12-03T06:08:40.052Z,79.80
2022-12-03T06:11:06.862Z,80.00
2022-12-03T06:13:33.802Z,79.70
2022-12-03T06:16:01.320Z,79.45
2022-12-03T06:18:29.641Z,80.13
2022-12-03T06:20:56.455Z,78.95
2022-12-03T06:23:23.318Z,79.75
2022-12-03T06:25:50.187Z,79.75
2022-12-03T06:28:17.018Z,79.78
2022-12-03T06:30:44.109Z,79.63
2022-12-03T06:33:11.071Z,79.07
2022-12-03T06:35:39.250Z,79.30
2022-12-03T06:38:06.134Z,80.93
2022-12-03T06:40:33.119Z,79.20
2022-12-03T06:42:59.994Z,79.55
2022-12-03T06:45:26.807Z,80.03
2022-12-03T06:47:53.711Z,79.63
2022-12-03T06:50:20.545Z,80.05
2022-12-03T06:52:48.735Z,79.85
2022-12-03T06:55:15.854Z,79.53
2022-12-03T06:57:42.691Z,80.35
2022-12-03T07:00:10.877Z,79.65
2022-12-03T07:02:37.903Z,80.43
2022-12-03T07:05:05.298Z,79.80
2022-12-03T07:07:32.325Z,79.72
2022-12-03T07:10:00.649Z,80.22
2022-12-03T07:12:27.492Z,79.75
2022-12-03T07:14:54.478Z,79.95
2022-12-03T07:17:21.515Z,80.35
2022-12-03T07:19:48.364Z,79.97
2022-12-03T07:22:15.323Z,80.03
2022-12-03T07:24:42.273Z,80.35
2022-12-03T07:27:10.470Z,79.90
2022-12-03T07:29:37.282Z,79.90
2022-12-03T07:32:04.552Z,80.25
2022-12-03T07:34:31.401Z,80.03
2022-12-03T07:36:58.744Z,80.63
2022-12-03T07:39:25.608Z,82.00
2022-12-03T07:41:52.517Z,80.80
2022-12-03T07:44:20.738Z,81.97
2022-12-03T07:46:47.672Z,80.78
2022-12-03T07:49:14.798Z,81.65
2022-12-03T07:51:41.712Z,81.43
2022-12-03T07:54:08.819Z,81.40
2022-12-03T07:56:36.076Z,80.93
2022-12-03T07:59:02.915Z,80.57
2022-12-03T08:01:31.138Z,82.45
2022-12-03T08:03:58.017Z,80.68
2022-12-03T08:06:24.878Z,82.00
2022-12-03T08:08:51.713Z,81.40
2022-12-03T08:11:18.577Z,80.72
2022-12-03T08:13:45.450Z,81.40
2022-12-03T08:16:17.875Z,81.13
2022-12-03T08:18:47.765Z,81.80
2022-12-03T08:21:17.878Z,81.03
2022-12-03T08:23:45.595Z,81.47
2022-12-03T08:26:20.716Z,81.97
2022-12-03T08:28:47.773Z,81.70
2022-12-03T08:31:21.187Z,82.45
2022-12-03T08:33:51.678Z,81.00
2022-12-03T08:36:22.867Z,80.97
2022-12-03T08:38:52.046Z,81.90
2022-12-03T08:41:38.390Z,81.20
2022-12-03T08:44:24.838Z,81.50
2022-12-03T08:46:55.692Z,80.88
2022-12-03T08:49:23.930Z,80.75
2022-12-03T08:51:56.013Z,82.57
2022-12-03T08:54:24.970Z,81.60
2022-12-03T08:56:51.836Z,80.97
2022-12-03T08:59:26.062Z,81.22
2022-12-03T09:01:53.829Z,81.35
2022-12-03T09:04:29.208Z,82.35
2022-12-03T09:06:56.644Z,81.15
2022-12-03T09:09:24.511Z,80.82
2022-12-03T09:11:52.013Z,81.65
2022-12-03T09:14:21.269Z,81.38
2022-12-03T09:16:49.225Z,80.65
2022-12-03T09:19:16.337Z,80.88
2022-12-03T09:21:45.145Z,81.97
2022-12-03T09:24:12.329Z,81.25
2022-12-03T09:26:39.226Z,80.82
2022-12-03T09:29:11.729Z,82.85
2022-12-03T09:31:39.179Z,81.20
2022-12-03T09:34:06.531Z,81.40
2022-12-03T09:36:33.833Z,82.40
2022-12-03T09:39:02.068Z,81.20
2022-12-03T09:41:28.964Z,81.00
2022-12-03T09:44:05.477Z,81.70
2022-12-03T09:46:35.522Z,81.65
2022-12-03T09:49:03.082Z,81.28
2022-12-03T09:51:33.051Z,81.25
2022-12-03T09:54:00.413Z,81.70
2022-12-03T09:56:32.274Z,80.00
2022-12-03T09:58:59.436Z,81.28
2022-12-03T10:01:30.087Z,81.07
2022-12-03T10:03:58.656Z,80.93
2022-12-03T10:06:25.635Z,81.88
2022-12-03T10:08:55.108Z,81.38
2022-12-03T10:11:24.636Z,80.53
2022-12-03T10:13:55.261Z,81.43
2022-12-03T10:16:22.513Z,81.07
2022-12-03T10:18:52.526Z,81.35
2022-12-03T10:21:23.134Z,81.10
2022-12-03T10:23:55.097Z,80.32
2022-12-03T10:26:40.139Z,81.13
2022-12-03T10:29:14.247Z,80.75
2022-12-03T10:31:41.169Z,81.45
2022-12-03T10:34:09.368Z,81.20
2022-12-03T10:36:36.598Z,80.90
2022-12-03T10:39:09.588Z,82.93
2022-12-03T10:41:38.634Z,80.40
2022-12-03T10:44:17.535Z,81.32
2022-12-03T10:46:45.757Z,81.78
2022-12-03T10:49:17.243Z,81.72
2022-12-03T10:54:17.921Z,80.45
2022-12-03T10:56:45.547Z,82.78
2022-12-03T10:59:19.834Z,81.70
2022-12-03T11:01:47.675Z,81.00
2022-12-03T11:04:23.647Z,81.00
2022-12-03T11:06:50.995Z,81.15
2022-12-03T11:09:21.905Z,81.55
2022-12-03T11:11:49.248Z,81.93
2022-12-03T11:14:56.616Z,80.55
2022-12-03T11:17:51.063Z,81.43
2022-12-03T11:20:51.342Z,80.50
2022-12-03T11:23:56.564Z,81.07
2022-12-03T11:27:02.151Z,80.95
2022-12-03T11:29:52.372Z,81.10
2022-12-03T11:33:19.834Z,80.57
2022-12-03T11:36:11.880Z,80.40
2022-12-03T11:38:47.340Z,80.28
2022-12-03T11:41:19.288Z,80.75
2022-12-03T11:44:01.907Z,81.05
2022-12-03T11:46:40.568Z,80.85
2022-12-03T11:49:24.595Z,80.90
2022-12-03T11:51:51.862Z,80.32
2022-12-03T11:54:21.521Z,80.55
2022-12-03T11:56:49.579Z,81.43
2022-12-03T11:59:17.627Z,80.82
2022-12-03T12:01:45.389Z,80.53
2022-12-03T12:04:33.486Z,80.15
2022-12-03T12:07:01.602Z,81.07
2022-12-03T12:09:47.889Z,80.57
2022-12-03T12:12:18.966Z,80.47
2022-12-03T12:14:45.914Z,81.63
2022-12-03T12:17:31.582Z,81.07
2022-12-03T12:20:24.656Z,81.80
2022-12-03T12:22:54.262Z,80.93
2022-12-03T12:25:40.965Z,80.60
2022-12-03T12:28:08.625Z,81.53
2022-12-03T12:30:36.909Z,80.35
2022-12-03T12:33:19.787Z,82.32
2022-12-03T12:35:47.998Z,81.35
2022-12-03T12:38:17.826Z,81.07
2022-12-03T12:40:46.928Z,80.78
2022-12-03T12:43:25.151Z,80.93
2022-12-03T12:45:54.913Z,81.15
2022-12-03T12:48:26.703Z,80.75
2022-12-03T12:51:01.203Z,80.82
2022-12-03T12:53:31.309Z,79.90
2022-12-03T12:55:59.845Z,81.45
2022-12-03T12:58:28.705Z,81.05
2022-12-03T13:00:58.592Z,80.85
2022-12-03T13:03:27.570Z,80.70
2022-12-03T13:05:57.675Z,80.65
2022-12-03T13:08:27.885Z,80.70
2022-12-03T13:10:55.583Z,81.18
2022-12-03T13:13:25.230Z,81.07
2022-12-03T13:15:58.608Z,80.53
2022-12-03T13:18:33.175Z,81.35
2022-12-03T13:21:13.621Z,81.20
2022-12-03T13:23:40.662Z,81.00
2022-12-03T13:26:34.112Z,81.10
2022-12-03T13:29:10.938Z,82.95
2022-12-03T13:31:43.534Z,81.45
2022-12-03T13:34:16.451Z,81.88
2022-12-03T13:36:50.563Z,81.38
2022-12-03T13:39:29.294Z,80.75
2022-12-03T13:42:15.641Z,81.18
2022-12-03T13:44:46.225Z,81.07
2022-12-03T13:47:16.164Z,80.88
2022-12-03T13:49:47.861Z,81.63
2022-12-03T13:52:19.399Z,80.93
2022-12-03T13:54:49.266Z,80.85
2022-12-03T13:57:16.128Z,80.70
2022-12-03T13:59:43.023Z,80.78
2022-12-03T14:02:10.145Z,81.07
2022-12-03T14:04:37.125Z,80.78
2022-12-03T14:07:03.969Z,81.78
2022-12-03T14:09:32.198Z,81.15
2022-12-03T14:12:17.466Z,82.18
2022-12-03T14:14:44.773Z,81.40
2022-12-03T14:17:11.746Z,81.00
2022-12-03T14:19:38.698Z,81.75
2022-12-03T14:22:08.018Z,80.13
2022-12-03T14:24:36.488Z,81.68
2022-12-03T14:27:03.336Z,81.05
2022-12-03T14:29:30.265Z,81.18
2022-12-03T14:31:57.224Z,81.65
2022-12-03T14:34:24.172Z,83.85
2022-12-03T14:36:51.061Z,80.82
2022-12-03T14:39:17.946Z,81.60
2022-12-03T14:42:04.936Z,80.63
2022-12-03T14:44:31.903Z,80.78
2022-12-03T14:46:58.791Z,80.88
2022-12-03T14:49:25.685Z,81.18
2022-12-03T14:51:52.544Z,80.78
2022-12-03T14:54:20.397Z,81.72
2022-12-03T14:56:48.676Z,81.45
2022-12-03T14:59:15.550Z,81.30
2022-12-03T15:01:42.536Z,81.65
2022-12-03T15:04:09.496Z,80.93
2022-12-03T15:06:36.409Z,81.50
2022-12-03T15:09:04.284Z,81.60
2022-12-03T15:11:31.215Z,81.43
2022-12-03T15:13:59.541Z,80.47
2022-12-03T15:16:26.476Z,81.18
2022-12-03T15:18:53.709Z,81.05
2022-12-03T15:21:20.602Z,81.45
2022-12-03T15:23:47.519Z,80.88
2022-12-03T15:26:14.396Z,81.20
2022-12-03T15:28:45.339Z,81.25
2022-12-03T15:31:16.316Z,81.22
2022-12-03T15:33:43.279Z,80.85
2022-12-03T15:36:10.208Z,81.93
2022-12-03T15:38:37.105Z,81.55
2022-12-03T15:41:21.027Z,81.00
2022-12-03T15:43:48.044Z,80.88
2022-12-03T15:46:16.276Z,81.88
2022-12-03T15:48:43.387Z,81.40
2022-12-03T15:51:10.368Z,81.68
2022-12-03T15:53:37.442Z,81.00
2022-12-03T15:56:04.735Z,81.20
2022-12-03T15:58:31.738Z,81.13
2022-12-03T16:00:58.820Z,81.38
2022-12-03T16:03:27.165Z,81.18
2022-12-03T16:05:54.116Z,80.47
2022-12-03T16:08:21.345Z,81.32
2022-12-03T16:10:48.325Z,82.00
2022-12-03T16:13:15.149Z,80.85
2022-12-03T16:15:42.104Z,81.28
2022-12-03T16:18:09.288Z,81.88
2022-12-03T16:20:37.468Z,80.78
2022-12-03T16:23:04.428Z,81.75
2022-12-03T16:25:31.279Z,81.57
2022-12-03T16:27:58.419Z,81.82
2022-12-03T16:30:25.272Z,81.97
2022-12-03T16:32:52.137Z,81.80
2022-12-03T16:35:18.975Z,81.25
2022-12-03T16:37:47.251Z,81.82
2022-12-03T16:40:14.301Z,81.60
2022-12-03T16:42:41.285Z,81.40
2022-12-03T16:45:09.160Z,81.60
2022-12-03T16:47:36.583Z,81.30
2022-12-03T16:50:05.037Z,81.25
2022-12-03T16:52:32.193Z,81.80
2022-12-03T16:55:00.452Z,82.63
2022-12-03T16:57:33.148Z,82.50
2022-12-03T17:00:00.885Z,82.22
2022-12-03T17:02:28.048Z,81.30
2022-12-03T17:04:55.109Z,81.22
2022-12-03T17:07:21.930Z,81.55
2022-12-03T17:09:48.893Z,80.72
2022-12-03T17:12:17.155Z,81.57
2022-12-03T17:14:44.109Z,80.75
2022-12-03T17:17:10.971Z,83.43
2022-12-03T17:19:37.907Z,81.32
2022-12-03T17:22:04.721Z,81.97
2022-12-03T17:24:31.575Z,81.03
2022-12-03T17:26:58.562Z,80.97
2022-12-03T17:29:26.788Z,81.45
2022-12-03T17:31:53.711Z,81.20
2022-12-03T17:34:20.586Z,81.60
2022-12-03T17:36:47.404Z,81.53
2022-12-03T17:39:14.288Z,81.32
2022-12-03T17:41:41.183Z,81.30
2022-12-03T17:44:11.320Z,81.28
2022-12-03T17:46:41.325Z,81.22
2022-12-03T17:49:08.168Z,81.15
2022-12-03T17:51:35.020Z,82.80
2022-12-03T17:54:01.859Z,82.35
2022-12-03T17:56:28.714Z,81.72
2022-12-03T17:58:57.153Z,81.35
2022-12-03T18:01:24.111Z,82.38
2022-12-03T18:03:52.464Z,81.70
2022-12-03T18:06:19.366Z,82.03
2022-12-03T18:08:46.212Z,82.05
2022-12-03T18:11:13.047Z,81.47
2022-12-03T18:13:39.965Z,81.65
2022-12-03T18:16:07.384Z,82.65
2022-12-03T18:18:34.248Z,81.28
2022-12-03T18:21:04.267Z,81.75
2022-12-03T18:23:32.081Z,82.35
2022-12-03T18:25:58.941Z,81.38
2022-12-03T18:28:25.930Z,81.85
2022-12-03T18:30:53.114Z,82.47
2022-12-03T18:33:21.217Z,81.25
2022-12-03T18:35:48.109Z,81.90
2022-12-03T18:38:18.033Z,82.80
2022-12-03T18:40:46.287Z,81.40
2022-12-03T18:43:14.493Z,81.72
2022-12-03T18:45:42.122Z,82.03
2022-12-03T18:48:12.544Z,82.38
2022-12-03T18:50:39.646Z,81.60
2022-12-03T18:53:06.493Z,81.90
2022-12-03T18:55:36.040Z,82.10
2022-12-03T18:58:03.158Z,82.25
2022-12-03T19:00:30.086Z,82.18
2022-12-03T19:03:04.838Z,81.97
2022-12-03T19:05:34.376Z,81.28
2022-12-03T19:08:01.923Z,82.88
2022-12-03T19:10:29.129Z,81.28
2022-12-03T19:12:57.579Z,82.57
2022-12-03T19:15:24.509Z,82.40
2022-12-03T19:17:51.670Z,81.80
2022-12-03T19:20:18.639Z,82.68
2022-12-03T19:22:45.509Z,82.50
2022-12-03T19:25:12.388Z,82.20
2022-12-03T19:27:39.293Z,81.13
2022-12-03T19:30:08.998Z,81.55
2022-12-03T19:32:36.141Z,81.65
2022-12-03T19:35:05.293Z,82.07
2022-12-03T19:37:33.573Z,82.22
2022-12-03T19:40:01.064Z,82.03
2022-12-03T19:42:28.052Z,82.63
2022-12-03T19:44:54.979Z,81.82
2022-12-03T19:47:24.744Z,81.22
2022-12-03T19:49:53.229Z,81.90
2022-12-03T19:52:20.420Z,81.05
2022-12-03T19:54:47.287Z,82.03
2022-12-03T19:57:18.075Z,81.95
2022-12-03T19:59:48.504Z,81.47
2022-12-03T20:02:15.398Z,81.40
2022-12-03T20:04:43.731Z,82.15
2022-12-03T20:07:10.631Z,83.53
2022-12-03T20:09:37.483Z,82.18
2022-12-03T20:12:04.622Z,81.85
2022-12-03T20:14:31.571Z,82.18
2022-12-03T20:17:01.330Z,81.65
2022-12-03T20:19:28.265Z,81.20
2022-12-03T20:22:02.254Z,81.43
2022-12-03T20:24:29.771Z,81.43
2022-12-03T20:26:56.598Z,81.45
2022-12-03T20:29:23.543Z,82.80
2022-12-03T20:31:50.400Z,81.80
2022-12-03T20:34:17.466Z,81.50
2022-12-03T20:36:45.515Z,82.50
2022-12-03T20:39:13.704Z,81.40
2022-12-03T20:41:40.650Z,81.97
2022-12-03T20:44:08.454Z,82.75
2022-12-03T20:46:36.327Z,82.63
2022-12-03T20:49:04.058Z,81.93
2022-12-03T20:51:31.188Z,82.28
2022-12-03T20:53:59.118Z,81.13
2022-12-03T20:56:31.373Z,83.55
2022-12-03T20:59:04.887Z,81.88
2022-12-03T21:01:31.891Z,81.57
2022-12-03T21:03:58.986Z,81.75
2022-12-03T21:06:28.085Z,81.22
2022-12-03T21:08:56.706Z,81.78
2022-12-03T21:11:25.784Z,82.32
2022-12-03T21:13:54.553Z,82.35
2022-12-03T21:16:45.421Z,81.35
2022-12-03T21:19:11.740Z,82.40
2022-12-03T21:21:38.565Z,82.05
2022-12-03T21:24:05.961Z,81.28
2022-12-03T21:26:33.592Z,81.75
2022-12-03T21:29:01.838Z,81.68
2022-12-03T21:31:30.398Z,81.10
2022-12-03T21:33:58.046Z,81.75
2022-12-03T21:36:25.650Z,81.40
2022-12-03T21:38:52.717Z,81.10
2022-12-03T21:41:19.750Z,82.00
2022-12-03T21:43:46.735Z,82.20
2022-12-03T21:47:10.205Z,81.82
2022-12-03T21:49:04.049Z,83.82
2022-12-03T21:51:31.025Z,83.00
2022-12-03T21:54:00.632Z,82.05
2022-12-03T21:56:30.344Z,81.43
2022-12-03T21:58:57.211Z,81.75
2022-12-03T22:01:25.705Z,81.75
2022-12-03T22:03:52.665Z,81.03
2022-12-03T22:06:19.646Z,81.25
2022-12-03T22:08:46.835Z,81.95
2022-12-03T22:11:15.966Z,82.10
2022-12-03T22:13:43.519Z,81.70
2022-12-03T22:16:12.352Z,81.68
2022-12-03T22:18:40.884Z,82.60
2022-12-03T22:21:09.591Z,82.10
2022-12-03T22:23:36.751Z,82.10
2022-12-03T22:26:06.960Z,81.68
2022-12-03T22:28:34.673Z,81.20
2022-12-03T22:31:05.878Z,81.88
2022-12-03T22:33:32.821Z,81.20
2022-12-03T22:36:02.669Z,82.60
2022-12-03T22:38:30.945Z,82.68
2022-12-03T22:40:58.006Z,81.65
2022-12-03T22:43:25.262Z,81.20
2022-12-03T22:45:53.636Z,83.35
2022-12-03T22:48:21.218Z,82.75
2022-12-03T22:50:48.613Z,82.35
2022-12-03T22:53:17.447Z,81.78
2022-12-03T22:55:44.711Z,82.18
2022-12-03T22:58:11.775Z,81.60
2022-12-03T23:00:41.034Z,80.82
2022-12-03T23:03:08.309Z,81.80
2022-12-03T23:05:38.570Z,82.82
2022-12-03T23:08:07.046Z,81.45
2022-12-03T23:10:36.794Z,80.80
2022-12-03T23:13:04.827Z,81.20
2022-12-03T23:15:32.466Z,82.63
2022-12-03T23:18:00.239Z,81.40
2022-12-03T23:20:29.143Z,82.15
2022-12-03T23:22:56.031Z,82.10
2022-12-03T23:25:22.860Z,82.05
2022-12-03T23:27:51.079Z,83.30
2022-12-03T23:30:18.132Z,82.47
2022-12-03T23:32:45.068Z,81.85
2022-12-03T23:35:12.614Z,81.85
2022-12-03T23:37:42.955Z,82.03
2022-12-03T23:40:11.270Z,81.80
2022-12-03T23:42:38.235Z,82.05
2022-12-03T23:45:08.033Z,82.82
2022-12-03T23:47:34.941Z,82.78
2022-12-03T23:50:01.809Z,82.88
2022-12-03T23:52:28.750Z,81.57
2022-12-03T23:54:55.665Z,81.53
2022-12-03T23:57:22.643Z,81.93
2022-12-03T23:59:49.560Z,82.35
